This is the latest recevied weather packets stored in our database for station/object OM7ABC-17. If no packets are shown the sender has not sent any weather packets the latest 10 day(s).
| Time | Temp. | Humidity | Pressure | Rain* | Wind** | Luminosity | Snow |
|---|---|---|---|---|---|---|---|
| 1777921875 | 24.44° C | 26% | 991.6 hPa | - | - | - | - |
| 1777910174 | 25.56° C | 24% | 991 hPa | - | - | - | - |
| 1777909274 | 26.11° C | 24% | 991.1 hPa | - | - | - | - |
| 1777908374 | 26.11° C | 24% | 991.1 hPa | - | - | - | - |
| 1777902973 | 26.11° C | 26% | 992 hPa | - | - | - | - |
| 1777902073 | 26.11° C | 26% | 992.1 hPa | - | - | - | - |
| 1777901173 | 26.11° C | 27% | 992.3 hPa | - | - | - | - |
| 1777896673 | 25.56° C | 27% | 993.1 hPa | - | - | - | - |
| 1777895773 | 25° C | 28% | 993.4 hPa | - | - | - | - |
| 1777894873 | 25° C | 28% | 993.7 hPa | - | - | - | - |
| 1777893973 | 25° C | 28% | 993.6 hPa | - | - | - | - |
| 1777893073 | 24.44° C | 28% | 993.9 hPa | - | - | - | - |
| 1777892172 | 24.44° C | 28% | 994.1 hPa | - | - | - | - |
| 1777890372 | 23.89° C | 28% | 994.5 hPa | - | - | - | - |
| 1777889472 | 23.89° C | 28% | 994.7 hPa | - | - | - | - |
| 1777888572 | 23.33° C | 28% | 994.9 hPa | - | - | - | - |
| 1777887672 | 23.33° C | 28% | 995 hPa | - | - | - | - |
| 1777886772 | 23.33° C | 28% | 995 hPa | - | - | - | - |
| 1777885872 | 23.33° C | 28% | 995.2 hPa | - | - | - | - |
| 1777884972 | 22.78° C | 28% | 995.2 hPa | - | - | - | - |
| 1777884072 | 22.78° C | 28% | 995.4 hPa | - | - | - | - |
| 1777883172 | 22.78° C | 28% | 995.3 hPa | - | - | - | - |
| 1777882271 | 22.22° C | 28% | 995.5 hPa | - | - | - | - |
| 1777881378 | 22.22° C | 28% | 995.6 hPa | - | - | - | - |
| 1777880478 | 22.22° C | 28% | 995.8 hPa | - | - | - | - |
* Rain since midnight (hover to see other rain measurements)
** Current wind speed in m/s (hover to see current wind gust speed)